Time;durP1;ratioP1;P1;durP2;ratioP2;P2;SDS_P1;SDS_P2;PMS_P1;PMS_P2;Temp;Humidity;BMP_temperature;BMP_pressure;BME280_temperature;BME280_humidity;BME280_pressure;Samples;Min_cycle;Max_cycle;Signal;HPM_P1;HPM_P2
2021/05/24 00:00:27;;;;;;;4.28;3.53;;;19.10;57.90;;;;;;6140373;23;20139;-83
2021/05/24 00:03:10;;;;;;;5.28;3.35;;;19.10;57.90;;;;;;6141054;23;20142;-82
2021/05/24 00:05:41;;;;;;;4.70;3.80;;;19.10;58.00;;;;;;6140169;23;20247;-83
2021/05/24 00:08:15;;;;;;;4.85;3.53;;;19.10;57.90;;;;;;6115689;23;20178;-83
2021/05/24 00:10:45;;;;;;;6.03;3.70;;;19.10;57.90;;;;;;6164812;23;20134;-84
2021/05/24 00:13:14;;;;;;;4.20;3.42;;;19.10;57.90;;;;;;6165015;23;20173;-84
2021/05/24 00:15:45;;;;;;;5.13;3.40;;;19.10;58.00;;;;;;6116534;23;20634;-84
2021/05/24 00:18:17;;;;;;;4.40;3.28;;;19.10;57.90;;;;;;6116320;23;20598;-83
2021/05/24 00:20:55;;;;;;;3.80;3.42;;;19.10;57.90;;;;;;6140868;23;20209;-83
2021/05/24 00:23:22;;;;;;;5.30;3.45;;;19.10;57.80;;;;;;6117572;23;20233;-84
2021/05/24 00:25:50;;;;;;;4.25;3.50;;;19.10;57.70;;;;;;6141220;23;20136;-84
2021/05/24 00:28:18;;;;;;;5.00;3.40;;;19.10;57.80;;;;;;6140559;23;20147;-84
2021/05/24 00:30:54;;;;;;;4.18;3.38;;;19.10;57.80;;;;;;6115946;23;20516;-84
2021/05/24 00:33:20;;;;;;;4.55;3.53;;;19.10;57.80;;;;;;6140027;23;20288;-84
2021/05/24 00:35:58;;;;;;;7.10;3.22;;;19.10;57.90;;;;;;6140027;23;20131;-83
2021/05/24 00:38:23;;;;;;;5.20;3.45;;;19.10;57.90;;;;;;6164812;23;20142;-82
2021/05/24 00:40:52;;;;;;;4.43;3.55;;;19.10;57.90;;;;;;6164624;23;20135;-84
2021/05/24 00:43:24;;;;;;;6.07;3.60;;;19.10;58.00;;;;;;6116011;23;20590;-83
2021/05/24 00:45:53;;;;;;;5.07;3.80;;;19.10;57.90;;;;;;6115549;23;20147;-83
2021/05/24 00:48:18;;;;;;;4.47;3.30;;;19.10;57.90;;;;;;6140124;23;20169;-83
2021/05/24 00:50:44;;;;;;;4.72;3.42;;;19.10;57.80;;;;;;6140505;23;20206;-84
2021/05/24 00:53:26;;;;;;;5.65;3.80;;;19.10;57.90;;;;;;6115375;23;20179;-83
2021/05/24 00:55:55;;;;;;;4.07;3.30;;;19.10;57.80;;;;;;6164491;23;20139;-82
2021/05/24 00:58:21;;;;;;;3.47;3.17;;;19.10;57.90;;;;;;6139798;23;20143;-83
2021/05/24 01:00:49;;;;;;;4.35;3.65;;;19.10;58.50;;;;;;6139826;23;20131;-83
2021/05/24 01:03:15;;;;;;;5.38;3.45;;;19.10;57.80;;;;;;6115570;23;20146;-84
2021/05/24 01:05:50;;;;;;;4.05;3.50;;;19.10;57.80;;;;;;6115704;23;20632;-84
2021/05/24 01:08:24;;;;;;;5.50;3.78;;;19.10;57.90;;;;;;6139086;23;20143;-84
2021/05/24 01:11:03;;;;;;;3.80;3.22;;;19.10;57.90;;;;;;6164313;23;20133;-84
2021/05/24 01:13:35;;;;;;;5.25;3.63;;;19.10;57.90;;;;;;6139531;23;20249;-83
2021/05/24 01:16:03;;;;;;;5.35;3.50;;;19.10;57.90;;;;;;6116137;23;20222;-84
2021/05/24 01:18:30;;;;;;;7.13;3.60;;;19.00;57.90;;;;;;6164462;23;20186;-84
2021/05/24 01:21:02;;;;;;;4.95;3.40;;;19.10;57.80;;;;;;6115451;23;20139;-83
2021/05/24 01:23:40;;;;;;;4.93;3.42;;;19.10;57.90;;;;;;6140033;23;20186;-84
2021/05/24 01:26:06;;;;;;;5.07;3.42;;;19.10;57.80;;;;;;6139654;23;20606;-83
2021/05/24 01:28:33;;;;;;;5.22;3.20;;;19.00;57.90;;;;;;6139729;23;20139;-84
2021/05/24 01:31:01;;;;;;;6.15;3.50;;;19.00;57.90;;;;;;6164213;23;20135;-84
2021/05/24 01:33:27;;;;;;;5.88;3.78;;;19.00;57.80;;;;;;6115415;23;20181;-83
2021/05/24 01:35:57;;;;;;;5.35;3.70;;;19.00;58.00;;;;;;6140007;23;20135;-83
2021/05/24 01:38:25;;;;;;;5.20;3.60;;;19.00;58.00;;;;;;6164215;23;20202;-84
2021/05/24 01:40:51;;;;;;;4.15;3.40;;;19.00;57.80;;;;;;6164386;23;20135;-83
2021/05/24 01:43:17;;;;;;;7.00;3.38;;;19.00;58.00;;;;;;6115149;23;20225;-82
2021/05/24 01:45:44;;;;;;;4.38;3.47;;;19.00;58.00;;;;;;6139487;23;20155;-82
2021/05/24 01:48:13;;;;;;;4.95;3.45;;;19.00;58.00;;;;;;6140126;23;20131;-84
2021/05/24 01:50:39;;;;;;;4.65;3.58;;;19.00;58.00;;;;;;6139384;23;20127;-83
2021/05/24 01:53:05;;;;;;;6.13;3.40;;;19.00;58.00;;;;;;6139501;23;20181;-82
2021/05/24 01:55:31;;;;;;;4.28;3.38;;;19.00;58.00;;;;;;6140255;23;20559;-82
2021/05/24 01:57:59;;;;;;;5.78;3.60;;;19.00;58.00;;;;;;6115931;23;20151;-81
2021/05/24 02:00:28;;;;;;;5.78;3.20;;;19.00;58.00;;;;;;6139753;23;20600;-83
2021/05/24 02:02:56;;;;;;;4.20;3.40;;;19.00;58.80;;;;;;6165737;23;20210;-82
2021/05/24 02:05:26;;;;;;;4.30;3.63;;;19.00;58.10;;;;;;6140364;23;20158;-82
2021/05/24 02:08:01;;;;;;;5.20;3.42;;;19.00;58.00;;;;;;6140771;23;20611;-82
2021/05/24 02:10:31;;;;;;;4.53;3.22;;;19.00;58.10;;;;;;6139688;23;20455;-83
2021/05/24 02:12:57;;;;;;;4.90;3.40;;;19.00;58.20;;;;;;6164987;23;20542;-84
2021/05/24 02:15:28;;;;;;;3.45;3.15;;;18.90;58.20;;;;;;6140344;23;20218;-84
2021/05/24 02:17:54;;;;;;;4.57;3.38;;;18.90;58.10;;;;;;6141323;23;20135;-83
2021/05/24 02:20:25;;;;;;;4.03;3.28;;;18.90;58.20;;;;;;6140364;23;20158;-84
2021/05/24 02:22:52;;;;;;;5.43;3.63;;;18.90;58.20;;;;;;6116562;23;20142;-83
2021/05/24 02:25:18;;;;;;;4.10;3.42;;;18.90;58.20;;;;;;6139952;23;20135;-82
2021/05/24 02:27:44;;;;;;;4.38;3.08;;;18.90;58.20;;;;;;6140012;23;20127;-82
2021/05/24 02:30:13;;;;;;;4.57;3.30;;;19.00;58.20;;;;;;6139578;23;20127;-83
2021/05/24 02:32:42;;;;;;;4.05;3.30;;;18.90;58.20;;;;;;6140297;23;20189;-84
2021/05/24 02:35:10;;;;;;;3.88;3.03;;;18.90;58.20;;;;;;6139805;23;20151;-82
2021/05/24 02:37:38;;;;;;;4.53;3.33;;;18.90;58.10;;;;;;6164069;23;20135;-84
2021/05/24 02:40:23;;;;;;;4.43;3.47;;;18.90;58.20;;;;;;6164159;23;20138;-83
2021/05/24 02:42:49;;;;;;;4.32;3.38;;;18.90;58.30;;;;;;6139799;23;20190;-84
2021/05/24 02:45:24;;;;;;;3.50;3.20;;;18.90;58.30;;;;;;6114881;23;20160;-84
2021/05/24 02:47:51;;;;;;;4.55;3.50;;;18.90;58.30;;;;;;6190183;23;20209;-83
2021/05/24 02:50:21;;;;;;;5.20;3.65;;;18.90;58.30;;;;;;6164139;23;20159;-81
2021/05/24 02:52:54;;;;;;;5.00;3.50;;;18.90;58.40;;;;;;6190359;23;20166;-82
2021/05/24 02:55:24;;;;;;;5.82;3.40;;;18.90;58.40;;;;;;6164280;23;20193;-84
2021/05/24 02:57:51;;;;;;;4.78;3.50;;;18.90;58.40;;;;;;6163937;23;20566;-82
2021/05/24 03:00:18;;;;;;;3.97;3.58;;;18.90;58.50;;;;;;6140115;23;20131;-82
2021/05/24 03:02:48;;;;;;;3.55;3.25;;;18.80;58.50;;;;;;6139622;23;20193;-82
2021/05/24 03:05:17;;;;;;;5.70;3.45;;;18.80;58.40;;;;;;6115782;23;20147;-83
2021/05/24 03:07:43;;;;;;;6.40;3.63;;;18.80;58.50;;;;;;6139644;23;20154;-82
2021/05/24 03:10:12;;;;;;;4.53;3.53;;;18.80;58.40;;;;;;6114950;23;20214;-84
2021/05/24 03:12:39;;;;;;;3.53;3.22;;;18.80;58.40;;;;;;6163824;23;20230;-83
2021/05/24 03:15:06;;;;;;;5.65;3.42;;;18.80;59.00;;;;;;6138702;23;20185;-82
2021/05/24 03:17:32;;;;;;;3.88;3.25;;;18.80;58.40;;;;;;6115576;23;20230;-82
2021/05/24 03:20:01;;;;;;;5.50;3.67;;;18.80;58.50;;;;;;6163690;23;20131;-84
2021/05/24 03:22:31;;;;;;;4.70;3.22;;;18.80;58.40;;;;;;6163699;23;20145;-84
2021/05/24 03:24:59;;;;;;;3.78;3.13;;;18.80;58.70;;;;;;6164007;23;20169;-83
2021/05/24 03:27:26;;;;;;;3.95;3.30;;;18.80;58.70;;;;;;6139563;23;20582;-84
2021/05/24 03:29:54;;;;;;;3.30;3.00;;;18.80;58.50;;;;;;6139325;23;20622;-84
2021/05/24 03:32:20;;;;;;;4.40;3.70;;;18.80;58.60;;;;;;6117413;23;20177;-83
2021/05/24 03:34:46;;;;;;;3.78;3.25;;;18.80;58.50;;;;;;6141598;23;20209;-84
2021/05/24 03:37:14;;;;;;;5.53;3.35;;;18.80;58.50;;;;;;6141465;23;20210;-83
2021/05/24 03:39:48;;;;;;;3.80;3.30;;;18.90;58.50;;;;;;6117879;23;20143;-82
2021/05/24 03:42:15;;;;;;;3.92;3.05;;;18.80;58.40;;;;;;6114290;23;20187;-84
2021/05/24 03:44:45;;;;;;;5.10;3.40;;;18.80;58.60;;;;;;6119086;23;20143;-83
2021/05/24 03:47:11;;;;;;;3.92;3.30;;;18.90;58.30;;;;;;6120040;23;20128;-84
2021/05/24 03:49:39;;;;;;;5.13;3.38;;;18.90;58.40;;;;;;6119793;23;20147;-85
2021/05/24 03:52:09;;;;;;;4.82;3.35;;;18.80;58.40;;;;;;6143747;23;20170;-83
2021/05/24 03:54:35;;;;;;;3.95;3.47;;;18.80;58.30;;;;;;6143351;23;20136;-84
2021/05/24 03:57:02;;;;;;;4.60;3.67;;;18.80;58.20;;;;;;6142609;23;20132;-84
2021/05/24 03:59:37;;;;;;;4.03;3.58;;;18.80;58.90;;;;;;6117452;23;20146;-84
2021/05/24 04:02:03;;;;;;;4.57;3.90;;;18.80;58.20;;;;;;6120047;23;20151;-85
2021/05/24 04:04:31;;;;;;;4.32;3.20;;;18.80;58.30;;;;;;6119596;23;20171;-83
2021/05/24 04:07:03;;;;;;;4.68;3.33;;;18.80;58.30;;;;;;6095002;23;20214;-84
2021/05/24 04:09:29;;;;;;;4.40;3.45;;;18.80;58.30;;;;;;6119291;23;20140;-85
2021/05/24 04:11:56;;;;;;;4.03;2.97;;;18.80;58.50;;;;;;6118291;23;20174;-83
2021/05/24 04:14:24;;;;;;;4.15;3.60;;;18.80;58.10;;;;;;6118132;23;20635;-84
2021/05/24 04:16:56;;;;;;;3.60;3.30;;;18.80;58.10;;;;;;6118523;23;20167;-83
2021/05/24 04:19:22;;;;;;;4.90;3.40;;;18.80;58.20;;;;;;6142412;23;20166;-84
2021/05/24 04:21:48;;;;;;;4.45;3.50;;;18.80;58.20;;;;;;6092645;23;20194;-84
2021/05/24 04:24:21;;;;;;;5.07;3.05;;;18.80;58.10;;;;;;6087561;23;20144;-83
2021/05/24 04:26:53;;;;;;;3.95;3.40;;;18.80;58.20;;;;;;6138106;23;20142;-84
2021/05/24 04:29:22;;;;;;;4.10;3.30;;;18.80;58.10;;;;;;6113129;23;20143;-85
2021/05/24 04:31:56;;;;;;;3.80;3.50;;;18.80;58.00;;;;;;6111411;23;20178;-85
2021/05/24 04:34:23;;;;;;;4.78;3.17;;;18.80;58.00;;;;;;6135822;23;20167;-84
2021/05/24 04:36:49;;;;;;;3.75;3.17;;;18.80;58.00;;;;;;6134917;23;20132;-83
2021/05/24 04:39:16;;;;;;;3.90;3.10;;;18.80;58.00;;;;;;6111336;23;20147;-84
2021/05/24 04:41:42;;;;;;;3.58;3.28;;;18.80;58.00;;;;;;6118417;23;20199;-83
2021/05/24 04:44:19;;;;;;;3.30;3.00;;;18.80;57.80;;;;;;6115469;23;20159;-84
2021/05/24 04:46:48;;;;;;;3.80;3.50;;;18.80;57.70;;;;;;6167276;23;20193;-85
2021/05/24 04:49:17;;;;;;;4.05;3.50;;;18.80;58.00;;;;;;6164586;23;20193;-84
2021/05/24 04:51:44;;;;;;;4.75;3.38;;;18.80;57.80;;;;;;6164666;23;20246;-83
2021/05/24 04:54:13;;;;;;;4.57;3.30;;;18.80;58.60;;;;;;6164781;23;20258;-84
2021/05/24 04:56:44;;;;;;;3.53;3.00;;;18.80;57.90;;;;;;6165269;23;20215;-83
2021/05/24 04:59:11;;;;;;;5.10;3.17;;;18.80;57.70;;;;;;6139946;23;20233;-83
2021/05/24 05:01:37;;;;;;;3.20;2.90;;;18.80;57.60;;;;;;6164799;23;20659;-85
2021/05/24 05:04:10;;;;;;;3.88;3.30;;;18.80;57.70;;;;;;6140050;23;20579;-84
2021/05/24 05:06:39;;;;;;;3.67;3.17;;;18.80;57.50;;;;;;6165356;23;20150;-84
2021/05/24 05:09:08;;;;;;;3.50;3.20;;;18.80;57.60;;;;;;6140761;23;20127;-85
2021/05/24 05:11:35;;;;;;;3.95;3.03;;;18.80;57.70;;;;;;6140596;23;20226;-83
2021/05/24 05:14:02;;;;;;;4.18;3.20;;;18.80;57.60;;;;;;6164821;23;20585;-84
2021/05/24 05:16:29;;;;;;;3.33;3.03;;;18.80;57.60;;;;;;6140021;23;20154;-83
2021/05/24 05:18:55;;;;;;;3.72;2.97;;;18.80;57.90;;;;;;6164612;23;20146;-84
2021/05/24 05:21:22;;;;;;;6.13;3.45;;;18.80;57.60;;;;;;6139791;23;20487;-84
2021/05/24 05:23:51;;;;;;;3.40;3.08;;;18.80;57.20;;;;;;6114543;23;20567;-84
2021/05/24 05:26:17;;;;;;;3.30;3.00;;;18.80;57.30;;;;;;6161993;23;20555;-83
2021/05/24 05:28:44;;;;;;;3.50;3.15;;;18.80;57.50;;;;;;6189568;23;20138;-84
2021/05/24 05:31:12;;;;;;;4.47;3.20;;;18.80;57.30;;;;;;6162375;23;20206;-84
2021/05/24 05:33:39;;;;;;;3.70;3.00;;;18.80;57.30;;;;;;6187715;23;20607;-84
2021/05/24 05:36:05;;;;;;;3.83;3.10;;;18.80;57.40;;;;;;6161482;23;20560;-83
2021/05/24 05:38:33;;;;;;;3.63;2.97;;;18.80;57.10;;;;;;6161278;23;20631;-83
2021/05/24 05:40:59;;;;;;;4.03;3.10;;;18.80;56.90;;;;;;6137565;23;20581;-83
2021/05/24 05:43:25;;;;;;;3.05;2.75;;;18.80;57.30;;;;;;6136553;23;20534;-83
2021/05/24 05:45:50;;;;;;;3.78;3.28;;;18.90;56.70;;;;;;6137132;23;20138;-83
2021/05/24 05:48:17;;;;;;;3.30;2.75;;;18.80;57.30;;;;;;6161383;23;20481;-83
2021/05/24 05:50:45;;;;;;;3.50;2.83;;;18.80;56.90;;;;;;6112569;23;20143;-83
2021/05/24 05:53:14;;;;;;;5.25;3.13;;;18.90;57.10;;;;;;6142202;23;20190;-83
2021/05/24 05:55:40;;;;;;;3.65;3.20;;;18.90;57.30;;;;;;6136167;23;20139;-83
2021/05/24 05:58:08;;;;;;;3.00;2.80;;;18.90;57.20;;;;;;6136061;23;20158;-83
2021/05/24 06:00:43;;;;;;;3.63;3.10;;;18.80;57.00;;;;;;6160942;23;20139;-84
2021/05/24 06:03:11;;;;;;;4.93;3.15;;;18.80;57.10;;;;;;6161417;23;20146;-84
2021/05/24 06:05:38;;;;;;;3.03;2.65;;;18.80;56.80;;;;;;6136433;23;20285;-84
2021/05/24 06:08:06;;;;;;;3.95;3.42;;;18.80;57.30;;;;;;6136673;23;20448;-84
2021/05/24 06:10:40;;;;;;;3.78;2.95;;;18.80;56.90;;;;;;6161846;23;20134;-83
2021/05/24 06:13:08;;;;;;;3.35;2.90;;;18.80;56.60;;;;;;6161618;23;20177;-84
2021/05/24 06:15:36;;;;;;;3.83;3.05;;;18.80;57.00;;;;;;6161036;23;20127;-84
2021/05/24 06:18:03;;;;;;;3.40;3.10;;;18.80;56.80;;;;;;6187666;23;20138;-84
2021/05/24 06:20:31;;;;;;;3.78;3.17;;;18.80;56.90;;;;;;6161651;23;20135;-83
2021/05/24 06:22:57;;;;;;;3.28;2.88;;;18.80;56.70;;;;;;6161909;23;20142;-83
2021/05/24 06:25:26;;;;;;;3.72;3.17;;;18.80;56.90;;;;;;6161424;23;20182;-84
2021/05/24 06:27:52;;;;;;;4.07;2.75;;;18.80;56.70;;;;;;6161442;23;20127;-83
2021/05/24 06:30:19;;;;;;;3.63;3.03;;;18.80;56.60;;;;;;6161827;23;20147;-84
2021/05/24 06:32:45;;;;;;;3.45;3.05;;;18.80;56.70;;;;;;6188267;23;20232;-83
2021/05/24 06:35:21;;;;;;;3.88;2.80;;;18.80;56.80;;;;;;6189364;23;20139;-84
2021/05/24 06:37:48;;;;;;;3.72;2.90;;;18.80;56.90;;;;;;6164022;23;20130;-84
2021/05/24 06:40:16;;;;;;;3.97;3.40;;;18.80;56.90;;;;;;6170371;23;20177;-84
2021/05/24 06:42:43;;;;;;;3.30;3.00;;;18.80;57.10;;;;;;6149502;23;20213;-85
2021/05/24 06:45:18;;;;;;;3.38;3.08;;;18.80;57.10;;;;;;6147126;23;20147;-84
2021/05/24 06:47:53;;;;;;;3.60;2.83;;;18.80;56.90;;;;;;6146430;23;20135;-85
2021/05/24 06:50:19;;;;;;;3.67;3.35;;;18.80;57.20;;;;;;6145200;23;20138;-84
2021/05/24 06:52:45;;;;;;;4.50;2.97;;;18.80;56.90;;;;;;6143201;23;20246;-84
2021/05/24 06:55:33;;;;;;;3.10;2.80;;;18.80;56.40;;;;;;6168676;23;20127;-85
2021/05/24 06:58:08;;;;;;;4.38;3.10;;;18.90;56.20;;;;;;6176365;23;20453;-84
2021/05/24 07:00:42;;;;;;;3.40;3.00;;;18.90;56.60;;;;;;6168572;23;20607;-82
2021/05/24 07:03:09;;;;;;;4.07;2.80;;;18.90;56.90;;;;;;6169130;23;20169;-85
2021/05/24 07:05:44;;;;;;;3.17;2.83;;;18.90;56.70;;;;;;6194748;23;20135;-85
2021/05/24 07:08:17;;;;;;;4.10;3.10;;;18.90;56.20;;;;;;6166893;23;20149;-84
2021/05/24 07:10:51;;;;;;;4.07;2.67;;;18.90;56.30;;;;;;6165230;23;20126;-84
2021/05/24 07:13:26;;;;;;;3.42;3.13;;;18.90;56.00;;;;;;6187864;23;20166;-84
2021/05/24 07:15:53;;;;;;;3.33;2.70;;;18.90;56.70;;;;;;6161855;23;20130;-83
2021/05/24 07:18:19;;;;;;;3.65;3.15;;;18.90;56.40;;;;;;6161537;23;20131;-83
2021/05/24 07:20:46;;;;;;;4.50;3.20;;;18.90;56.70;;;;;;6162362;23;20134;-83
2021/05/24 07:23:14;;;;;;;4.32;3.00;;;18.90;57.00;;;;;;6161362;23;20146;-83
2021/05/24 07:25:44;;;;;;;3.20;2.90;;;18.90;56.80;;;;;;6160228;23;20269;-83
2021/05/24 07:28:11;;;;;;;3.22;2.90;;;18.90;56.80;;;;;;6161776;23;20134;-83
2021/05/24 07:30:37;;;;;;;4.20;2.90;;;18.80;56.60;;;;;;6160903;23;20197;-83
2021/05/24 07:33:07;;;;;;;5.72;3.00;;;18.80;56.80;;;;;;6161326;23;20238;-83
2021/05/24 07:35:34;;;;;;;4.25;3.03;;;18.90;56.20;;;;;;6161781;23;20265;-82
2021/05/24 07:38:00;;;;;;;3.20;2.78;;;18.90;56.60;;;;;;6158688;23;20316;-83
2021/05/24 07:40:25;;;;;;;3.47;2.85;;;18.90;56.00;;;;;;6189430;23;20324;-80
2021/05/24 07:42:51;;;;;;;4.25;2.90;;;18.90;56.50;;;;;;6162939;23;20561;-83
2021/05/24 07:45:17;;;;;;;3.63;2.95;;;18.90;55.70;;;;;;6163499;23;20138;-80
2021/05/24 07:47:45;;;;;;;3.00;2.70;;;18.90;55.90;;;;;;6189487;23;20135;-80
2021/05/24 07:50:12;;;;;;;4.85;2.90;;;18.90;55.90;;;;;;6187998;23;20138;-81
2021/05/24 07:52:41;;;;;;;3.60;3.30;;;19.00;56.00;;;;;;6187537;23;20250;-82
2021/05/24 07:55:09;;;;;;;3.17;2.88;;;18.90;56.50;;;;;;6139277;23;20197;-81
2021/05/24 07:57:38;;;;;;;4.95;2.92;;;19.00;56.00;;;;;;6136909;23;20178;-81
2021/05/24 08:00:10;;;;;;;4.63;3.20;;;18.90;56.40;;;;;;6137635;23;20174;-80
2021/05/24 08:02:41;;;;;;;4.65;3.00;;;18.90;56.80;;;;;;6161898;23;20162;-81
2021/05/24 08:05:11;;;;;;;6.53;3.00;;;18.90;56.70;;;;;;6163164;23;20135;-82
2021/05/24 08:07:39;;;;;;;4.47;3.20;;;18.90;56.40;;;;;;6163926;23;20135;-83
2021/05/24 08:10:05;;;;;;;5.30;2.90;;;19.00;56.40;;;;;;6139023;23;20143;-81
2021/05/24 08:12:39;;;;;;;4.60;2.75;;;19.00;56.30;;;;;;6139173;23;20167;-82
2021/05/24 08:15:28;;;;;;;4.28;3.00;;;19.00;56.20;;;;;;6161439;23;20130;-82
2021/05/24 08:18:05;;;;;;;4.20;3.28;;;19.00;56.40;;;;;;6163496;23;20443;-84
2021/05/24 08:20:33;;;;;;;7.90;2.92;;;19.00;56.40;;;;;;6163462;23;20150;-83
2021/05/24 08:23:00;;;;;;;6.97;3.17;;;19.00;55.90;;;;;;6138209;23;20159;-83
2021/05/24 08:25:26;;;;;;;6.10;3.17;;;19.10;56.30;;;;;;6138550;23;20590;-83
2021/05/24 08:27:53;;;;;;;7.90;2.85;;;19.10;56.60;;;;;;6162008;23;20233;-83
2021/05/24 08:30:23;;;;;;;13.73;3.80;;;19.10;56.10;;;;;;6161645;23;20131;-84
2021/05/24 08:32:58;;;;;;;8.68;3.03;;;19.10;56.30;;;;;;6164655;23;20170;-83
2021/05/24 08:35:24;;;;;;;15.15;3.70;;;19.10;56.10;;;;;;6162999;23;20218;-84
2021/05/24 08:37:50;;;;;;;17.48;3.97;;;19.10;56.60;;;;;;6139468;23;20147;-82
2021/05/24 08:40:21;;;;;;;14.98;2.95;;;19.10;56.40;;;;;;6137228;23;20185;-83
2021/05/24 08:42:56;;;;;;;10.20;3.28;;;19.10;56.30;;;;;;6163147;23;20182;-85
2021/05/24 08:45:24;;;;;;;14.68;3.20;;;19.10;56.20;;;;;;6152107;23;20138;-84
2021/05/24 08:47:52;;;;;;;10.63;3.17;;;19.10;55.80;;;;;;6150339;23;20183;-86
2021/05/24 08:50:20;;;;;;;10.32;3.40;;;19.10;55.90;;;;;;6131137;23;20143;-85
2021/05/24 08:52:47;;;;;;;10.55;3.60;;;19.20;56.20;;;;;;6125787;23;20646;-86
2021/05/24 08:55:16;;;;;;;11.30;3.60;;;19.10;56.20;;;;;;6173686;23;20199;-87
2021/05/24 08:57:43;;;;;;;9.30;3.25;;;19.20;56.00;;;;;;6150672;23;20170;-86
2021/05/24 09:00:13;;;;;;;11.52;2.83;;;19.20;56.10;;;;;;6172988;23;20631;-85
2021/05/24 09:02:41;;;;;;;9.10;2.92;;;19.20;55.90;;;;;;6176397;23;20139;-85
2021/05/24 09:05:09;;;;;;;5.45;3.10;;;19.20;56.00;;;;;;6148825;23;20221;-85
2021/05/24 09:07:58;;;;;;;8.38;3.35;;;19.20;55.80;;;;;;6121210;23;20177;-84
2021/05/24 09:10:28;;;;;;;8.18;3.25;;;19.20;56.00;;;;;;6123410;23;20150;-82
2021/05/24 09:13:01;;;;;;;7.10;3.20;;;19.20;56.40;;;;;;6114301;23;20174;-84
2021/05/24 09:15:26;;;;;;;8.23;3.22;;;19.10;56.20;;;;;;6161261;23;20158;-84
2021/05/24 09:18:03;;;;;;;9.02;3.22;;;19.10;56.50;;;;;;6160598;23;20158;-82
2021/05/24 09:20:37;;;;;;;7.47;2.72;;;19.10;56.40;;;;;;6187493;23;20131;-84
2021/05/24 09:23:07;;;;;;;6.28;3.17;;;19.10;56.20;;;;;;6163405;23;20135;-84
2021/05/24 09:26:05;;;;;;;7.65;3.03;;;19.10;56.60;;;;;;6141441;23;20142;-83
2021/05/24 09:28:35;;;;;;;15.02;3.28;;;19.10;56.60;;;;;;6165703;23;20147;-84
2021/05/24 09:31:10;;;;;;;4.65;2.60;;;19.10;56.40;;;;;;6190152;23;20131;-83
2021/05/24 09:33:44;;;;;;;8.85;3.03;;;19.20;55.90;;;;;;6141473;23;20265;-84
2021/05/24 09:36:10;;;;;;;3.85;2.88;;;19.20;56.00;;;;;;6143716;23;20478;-83
2021/05/24 09:39:06;;;;;;;8.02;2.72;;;19.20;56.20;;;;;;6117551;23;20135;-84
2021/05/24 09:41:42;;;;;;;5.43;3.10;;;19.20;56.00;;;;;;6165916;23;20252;-84
2021/05/24 09:44:08;;;;;;;4.65;3.10;;;19.20;55.90;;;;;;6143308;23;20147;-84
2021/05/24 09:46:39;;;;;;;6.03;2.83;;;19.20;56.10;;;;;;6116518;23;20146;-83
2021/05/24 09:49:06;;;;;;;5.50;3.00;;;19.20;55.50;;;;;;6163649;23;20162;-84
2021/05/24 09:51:34;;;;;;;5.80;2.80;;;19.20;55.60;;;;;;6161049;23;20135;-83
2021/05/24 09:54:03;;;;;;;5.97;3.10;;;19.20;55.50;;;;;;6188063;23;20135;-84
2021/05/24 09:56:31;;;;;;;5.80;2.90;;;19.20;55.60;;;;;;6163543;23;20139;-85
2021/05/24 09:59:08;;;;;;;7.72;3.03;;;19.20;55.80;;;;;;6164290;23;20197;-83
2021/05/24 10:01:38;;;;;;;6.13;2.72;;;19.20;55.80;;;;;;6190578;23;20158;-83
2021/05/24 10:04:08;;;;;;;4.53;2.65;;;19.20;55.60;;;;;;6117811;23;20155;-83
2021/05/24 10:06:34;;;;;;;10.77;2.88;;;19.20;55.30;;;;;;6139929;23;20186;-86
2021/05/24 10:09:00;;;;;;;6.00;2.88;;;19.20;55.40;;;;;;6163051;23;20562;-84
2021/05/24 10:11:35;;;;;;;7.53;3.05;;;19.20;55.20;;;;;;6113908;23;20138;-84
2021/05/24 10:14:02;;;;;;;4.18;2.72;;;19.30;55.30;;;;;;6138276;23;20585;-84
2021/05/24 10:16:32;;;;;;;10.35;3.08;;;19.20;55.20;;;;;;6162621;23;20158;-84
2021/05/24 10:18:59;;;;;;;6.95;2.80;;;19.20;55.30;;;;;;6140784;23;20204;-85
2021/05/24 10:21:26;;;;;;;5.72;2.72;;;19.20;55.20;;;;;;6163292;23;20143;-84
2021/05/24 10:23:54;;;;;;;5.32;2.83;;;19.20;55.50;;;;;;6138425;23;20146;-84
2021/05/24 10:26:21;;;;;;;4.80;2.92;;;19.20;55.20;;;;;;6138090;23;20154;-84
2021/05/24 10:28:48;;;;;;;8.93;2.80;;;19.20;55.20;;;;;;6138385;23;20157;-84
2021/05/24 10:31:25;;;;;;;3.17;2.60;;;19.30;55.00;;;;;;6163314;23;20609;-84
2021/05/24 10:34:17;;;;;;;3.45;2.60;;;19.20;55.60;;;;;;6164478;23;20166;-84
2021/05/24 10:36:45;;;;;;;6.22;2.92;;;19.20;55.40;;;;;;6163094;23;20146;-85
2021/05/24 10:39:22;;;;;;;6.10;2.90;;;19.20;54.80;;;;;;6139540;23;20151;-85
2021/05/24 10:41:50;;;;;;;7.97;2.75;;;19.20;54.90;;;;;;6164077;23;20265;-85
2021/05/24 10:44:23;;;;;;;5.35;2.67;;;19.20;55.00;;;;;;6118203;23;20157;-86
2021/05/24 10:46:52;;;;;;;5.30;2.80;;;19.20;55.10;;;;;;6117382;23;20151;-81
2021/05/24 10:49:25;;;;;;;3.75;2.75;;;19.20;55.00;;;;;;6113446;23;20150;-83
2021/05/24 10:51:55;;;;;;;5.45;2.80;;;19.10;55.20;;;;;;6136716;23;20462;-84
2021/05/24 10:54:20;;;;;;;8.07;2.97;;;19.20;54.90;;;;;;6144753;23;20563;-84
2021/05/24 10:57:00;;;;;;;6.47;2.67;;;19.20;55.00;;;;;;6193840;23;20203;-86
2021/05/24 10:59:44;;;;;;;3.85;2.85;;;19.20;54.70;;;;;;6192589;23;20131;-82
2021/05/24 11:02:23;;;;;;;8.32;3.25;;;19.20;54.70;;;;;;6190738;23;20141;-78
2021/05/24 11:04:59;;;;;;;6.65;2.85;;;19.20;54.90;;;;;;6191504;23;20134;-83
2021/05/24 11:07:46;;;;;;;7.50;3.08;;;19.20;54.80;;;;;;6141015;23;20602;-84
2021/05/24 11:10:18;;;;;;;7.18;2.78;;;19.20;54.90;;;;;;6120722;23;20158;-83
2021/05/24 11:13:32;;;;;;;8.43;2.63;;;19.20;55.00;;;;;;6163123;23;20206;-84
2021/05/24 11:16:14;;;;;;;5.53;3.10;;;19.20;55.00;;;;;;6159655;23;20158;-85
2021/05/24 11:18:47;;;;;;;7.47;2.97;;;19.20;55.00;;;;;;6159128;23;20158;-85
2021/05/24 11:21:23;;;;;;;5.68;2.83;;;19.20;54.90;;;;;;6139655;23;20147;-85
2021/05/24 11:26:33;;;;;;;6.43;2.60;;;19.20;55.30;;;;;;6143816;23;20223;-82
2021/05/24 11:29:16;;;;;;;4.00;2.63;;;19.20;54.70;;;;;;6190803;23;20123;-82
2021/05/24 11:31:50;;;;;;;7.13;2.70;;;19.20;54.90;;;;;;6167235;23;20127;-82
2021/05/24 12:14:33;;;;;;;5.38;3.08;;;19.30;54.00;;;;;;6191457;23;20186;-85
2021/05/24 12:17:00;;;;;;;6.95;2.72;;;19.20;53.90;;;;;;6116479;23;20182;-83
2021/05/24 12:19:28;;;;;;;4.45;2.65;;;19.30;53.90;;;;;;6139903;23;20131;-84
2021/05/24 12:22:15;;;;;;;4.10;2.58;;;19.30;53.90;;;;;;6139308;23;20147;-85
2021/05/24 12:24:43;;;;;;;3.50;3.20;;;19.30;53.80;;;;;;6110146;23;20216;-82
2021/05/24 12:27:18;;;;;;;4.18;2.45;;;19.30;54.00;;;;;;6140647;23;20128;-81
2021/05/24 12:30:07;;;;;;;4.35;2.95;;;19.30;54.00;;;;;;6114476;23;20150;-84
2021/05/24 12:32:35;;;;;;;4.45;2.70;;;19.20;54.20;;;;;;6136501;23;20167;-84
2021/05/24 12:35:06;;;;;;;3.58;2.58;;;19.20;54.20;;;;;;6111367;23;20594;-85
2021/05/24 12:37:41;;;;;;;4.82;2.65;;;19.20;54.30;;;;;;6161916;23;20464;-86
2021/05/24 12:40:10;;;;;;;8.45;2.85;;;19.20;54.40;;;;;;6111179;23;20178;-84
2021/05/24 12:42:41;;;;;;;5.03;2.83;;;19.20;54.50;;;;;;6160348;23;20619;-85
2021/05/24 12:45:13;;;;;;;4.45;2.72;;;19.20;54.60;;;;;;6164355;23;20179;-84
2021/05/24 12:47:40;;;;;;;4.15;2.75;;;19.20;54.60;;;;;;6157748;23;20263;-85
2021/05/24 12:50:11;;;;;;;4.93;3.00;;;19.20;54.60;;;;;;6107942;23;20381;-84
2021/05/24 12:52:38;;;;;;;5.50;2.90;;;19.20;54.70;;;;;;6132656;23;20166;-86
2021/05/24 12:55:14;;;;;;;5.60;3.05;;;19.20;54.90;;;;;;6107698;23;20147;-86
2021/05/24 12:57:43;;;;;;;3.38;3.08;;;19.20;55.00;;;;;;6132311;23;20139;-83
2021/05/24 13:00:13;;;;;;;4.88;2.80;;;19.20;55.00;;;;;;6107710;23;20136;-83
2021/05/24 13:02:40;;;;;;;4.22;2.80;;;19.20;55.00;;;;;;6132163;23;20171;-85
2021/05/24 13:05:23;;;;;;;4.38;2.90;;;19.20;55.00;;;;;;6107421;23;20190;-84
2021/05/24 13:08:18;;;;;;;4.10;2.88;;;19.30;55.20;;;;;;6158586;23;20140;-84
2021/05/24 13:11:03;;;;;;;6.15;3.17;;;19.30;55.20;;;;;;6156938;23;20159;-84
2021/05/24 13:13:30;;;;;;;4.82;3.03;;;19.20;55.30;;;;;;6107245;23;20178;-84
2021/05/24 13:16:20;;;;;;;5.38;2.78;;;19.20;55.30;;;;;;6124619;23;20285;-86
2021/05/24 13:19:24;;;;;;;4.57;3.00;;;19.20;55.40;;;;;;6164266;23;20135;-85
2021/05/24 13:30:32;;;;;;;3.67;3.00;;;19.20;55.80;;;;;;6187928;23;20139;-87
2021/05/24 13:33:49;;;;;;;3.50;2.70;;;19.20;55.90;;;;;;6163215;23;20175;-84
2021/05/24 13:36:18;;;;;;;3.83;2.90;;;19.10;55.90;;;;;;6155725;23;20616;-84
2021/05/24 13:39:02;;;;;;;3.95;2.60;;;19.10;55.90;;;;;;6162007;23;20139;-85
2021/05/24 13:41:30;;;;;;;4.25;3.28;;;19.20;55.90;;;;;;6161394;23;20219;-85
2021/05/24 13:44:07;;;;;;;3.80;3.00;;;19.10;56.00;;;;;;6187716;23;20131;-85
2021/05/24 13:46:34;;;;;;;4.18;3.60;;;19.10;56.10;;;;;;6161859;23;20122;-85
2021/05/24 13:49:08;;;;;;;3.90;3.40;;;19.10;56.10;;;;;;6137142;23;20225;-85
2021/05/24 13:51:43;;;;;;;3.45;3.15;;;19.10;56.20;;;;;;6160847;23;20139;-85
2021/05/24 13:54:20;;;;;;;4.30;3.10;;;19.10;56.20;;;;;;6162313;23;20149;-86